BGTL

Thule Air Base Airport

Qaanaaq, , Greenland
METAR BGTL 161556Z AUTO 12005KT 9999 CLR M28/M30 A2973 RMK AO2 SLP062 T12831305 TSNO $
Observed Flight Rules
Nov-16 @ 15:56 UTC (46 minutes ago) Visual Flight Rules
Wind Visibility Clouds
120° at 5 knots 10,000+ meters
  • Clear skies
Temperatures Readings
Current -28°C / -18°F
Dewpoint -31°C / -24°F
Humidity 75%
Altimeter 29.73" Hg
Pressure 1006.2 hPa
Elevation 77
METAR BGTL 161556Z AUTO 12005KT 9999 CLR M28/M30 A2973 RMK AO2 SLP062 T12831305 TSNO $
Observed Flight Rules
Nov-16 @ 15:56 UTC
(46 minutes ago)
VFR
Wind Visibility
120° at 5 knots 10,000+ meters
Clouds
  • Clear skies
Temperature Dewpoint
-28°C / -18°F -31°C / -24°F
Humidity Altimeter Pressure
75% 29.73" Hg 1006.2 hPa